»·PEaware :: N5276P KTOA-KSBP

N5276P :: KTOA-KSBP

FLIGHT INFORMATION

Flight Status: Arrived
Operator: Privately registered:
United States
More flights under this callsign
Pilot: James F. (26163)
Aircraft: PIPER PA-28R-201 ARROW
(P28R)
More flights by this aircraft type
Origin: KTOA Zamperini
United States
Destination: KSBP San Luis Co Regl
United States
More flights between these airports :: More routes between these airports
Route: +LIMBO V64 WILMA V25 LAX V299 VTU T257 RZS MQO
File this flight plan on PilotEdge
Remarks:
Altitude:
(Current/Filed)
6,000ft
Speed:
(Current/Filed)
140kts
Departed: 03-Dec-19 10:09 AM
Arrived: 03-Dec-19 11:22 AM
Distance/Time
Traveled:
143nm/1:13
Distance/Time
To Go:
Arrived

Flight Plot

Page will automatically refresh every two minutes.

Flight plan parsing failed; only flown route is shown


Map Options




Map Legend


Flown Route
Filed Route
Departure Airport
Arrival Airport
Navaid (VOR, NDB)
Fix

Horizontal Profiles

Position Reports

Time Latitude Longitude Heading Altitude Ground
Speed
03-Dec-19 09:30 33.801748 -118.341769 305 104ft 0kts
03-Dec-19 09:31 33.801748 -118.341769 305 104ft 0kts
03-Dec-19 09:32 33.801748 -118.341769 305 104ft 0kts
03-Dec-19 09:33 33.801748 -118.341769 305 104ft 0kts
03-Dec-19 09:34 33.801748 -118.341769 305 104ft 0kts
03-Dec-19 09:35 33.801748 -118.341769 305 104ft 0kts
03-Dec-19 09:36 33.801748 -118.341769 305 104ft 0kts
03-Dec-19 09:37 33.801748 -118.341769 305 104ft 0kts
03-Dec-19 09:38 33.801748 -118.341769 305 104ft 0kts
03-Dec-19 09:39 33.801748 -118.341769 305 104ft 0kts
03-Dec-19 09:40 33.801748 -118.341769 305 104ft 0kts
03-Dec-19 09:41 33.801748 -118.341769 305 104ft 0kts
03-Dec-19 09:42 33.801748 -118.341769 305 104ft 0kts
03-Dec-19 09:43 33.801748 -118.341769 305 104ft 0kts
03-Dec-19 09:44 33.801748 -118.341769 305 104ft 0kts
03-Dec-19 09:45 33.801748 -118.341769 305 104ft 0kts
03-Dec-19 09:46 33.801748 -118.341769 305 104ft 0kts
03-Dec-19 09:47 33.801748 -118.341769 305 104ft 0kts
03-Dec-19 09:48 33.801748 -118.341769 305 104ft 0kts
03-Dec-19 09:49 33.801748 -118.341769 305 104ft 0kts
03-Dec-19 09:50 33.801748 -118.341769 305 104ft 0kts
03-Dec-19 09:51 33.801748 -118.341769 305 104ft 0kts
03-Dec-19 09:52 33.801748 -118.341769 305 104ft 0kts
03-Dec-19 09:53 33.801748 -118.341769 305 104ft 0kts
03-Dec-19 09:54 33.801748 -118.341769 305 104ft 0kts
03-Dec-19 09:55 33.801748 -118.341769 305 104ft 0kts
03-Dec-19 09:56 33.801748 -118.341769 305 104ft 0kts
03-Dec-19 09:57 33.801748 -118.341769 305 104ft 0kts
03-Dec-19 09:58 33.801850 -118.341699 83 103ft 5kts
03-Dec-19 09:59 33.800782 -118.338674 130 101ft 7kts
03-Dec-19 10:00 33.799836 -118.337220 127 102ft 10kts
03-Dec-19 10:01 33.798242 -118.334071 46 102ft 12kts
03-Dec-19 10:02 33.798958 -118.333194 5 99ft 0kts
03-Dec-19 10:03 33.798958 -118.333194 5 99ft 0kts
03-Dec-19 10:04 33.798958 -118.333194 5 99ft 0kts
03-Dec-19 10:05 33.798958 -118.333194 5 99ft 0kts
03-Dec-19 10:06 33.798958 -118.333194 5 99ft 0kts
03-Dec-19 10:07 33.799938 -118.333414 309 97ft 22kts
03-Dec-19 10:08 33.812275 -118.351661 300 588ft 71kts
03-Dec-19 10:09 33.825852 -118.374403 303 1125ft 103kts
03-Dec-19 10:10 33.842829 -118.404779 303 1896ft 106kts
03-Dec-19 10:11 33.858503 -118.432575 302 2788ft 95kts
03-Dec-19 10:12 33.868963 -118.456360 233 3554ft 82kts
03-Dec-19 10:13 33.846819 -118.464018 169 3929ft 93kts
03-Dec-19 10:14 33.826584 -118.443394 149 4255ft 97kts
03-Dec-19 10:15 33.829535 -118.426859 357 4737ft 83kts
03-Dec-19 10:16 33.852329 -118.428612 341 5213ft 79kts
03-Dec-19 10:17 33.874639 -118.429817 351 5628ft 82kts
03-Dec-19 10:18 33.896369 -118.430654 350 6026ft 83kts
03-Dec-19 10:19 33.926097 -118.431820 354 6004ft 119kts
03-Dec-19 10:20 33.954743 -118.443726 289 6007ft 117kts
03-Dec-19 10:21 33.960507 -118.482526 275 6003ft 118kts
03-Dec-19 10:22 33.970721 -118.514611 295 6509ft 83kts
03-Dec-19 10:23 33.974619 -118.540118 281 6717ft 88kts
03-Dec-19 10:24 33.981788 -118.569376 284 6986ft 93kts
03-Dec-19 10:25 33.990077 -118.599085 289 7248ft 93kts
03-Dec-19 10:26 33.997565 -118.629421 281 7497ft 96kts
03-Dec-19 10:27 34.007193 -118.659945 290 7742ft 96kts
03-Dec-19 10:28 34.016266 -118.689242 288 7995ft 92kts
03-Dec-19 10:29 34.027899 -118.722816 290 7968ft 121kts
03-Dec-19 10:30 34.041419 -118.762466 289 7966ft 140kts
03-Dec-19 10:31 34.051704 -118.808898 281 7962ft 147kts
03-Dec-19 10:32 34.063713 -118.856585 286 7961ft 149kts
03-Dec-19 10:33 34.076452 -118.904310 286 7961ft 149kts
03-Dec-19 10:34 34.089203 -118.952105 287 7961ft 150kts
03-Dec-19 10:35 34.102029 -119.000261 287 7960ft 150kts
03-Dec-19 10:36 34.114842 -119.048230 288 7960ft 150kts
03-Dec-19 10:37 34.137190 -119.090440 305 7960ft 150kts
03-Dec-19 10:38 34.160693 -119.132228 304 7960ft 149kts
03-Dec-19 10:39 34.183519 -119.173545 304 7960ft 147kts
03-Dec-19 10:41 34.206072 -119.214525 303 7960ft 147kts
03-Dec-19 10:42 34.228837 -119.255956 303 7960ft 147kts
03-Dec-19 10:43 34.251507 -119.297271 303 7960ft 147kts
03-Dec-19 10:44 34.274244 -119.338764 303 7961ft 147kts
03-Dec-19 10:45 34.297286 -119.380858 303 7961ft 147kts
03-Dec-19 10:46 34.319855 -119.422129 303 7961ft 147kts
03-Dec-19 10:47 34.342635 -119.463836 304 7961ft 146kts
03-Dec-19 10:48 34.365190 -119.505178 304 7961ft 146kts
03-Dec-19 10:49 34.387681 -119.546441 304 7961ft 145kts
03-Dec-19 10:50 34.410181 -119.587766 304 7961ft 145kts
03-Dec-19 10:51 34.432543 -119.628887 304 7961ft 145kts
03-Dec-19 10:52 34.454807 -119.669878 304 7959ft 145kts
03-Dec-19 10:53 34.477046 -119.710877 304 7959ft 145kts
03-Dec-19 10:54 34.499302 -119.751952 304 7960ft 145kts
03-Dec-19 10:55 34.524645 -119.790530 314 7961ft 144kts
03-Dec-19 10:56 34.553678 -119.823837 320 7964ft 143kts
03-Dec-19 10:57 34.583664 -119.856345 320 7967ft 143kts
03-Dec-19 10:58 34.613446 -119.888597 320 7969ft 143kts
03-Dec-19 10:59 34.642994 -119.920614 320 7972ft 143kts
03-Dec-19 10:59 34.667725 -119.947438 320 7974ft 140kts
03-Dec-19 11:01 34.702039 -119.984688 320 7977ft 141kts
03-Dec-19 11:01 34.726512 -120.011280 320 7978ft 141kts
03-Dec-19 11:03 34.760792 -120.048562 320 7978ft 141kts
03-Dec-19 11:04 34.789977 -120.080337 320 7977ft 142kts
03-Dec-19 11:04 34.815264 -120.107837 318 7963ft 144kts
03-Dec-19 11:06 34.850414 -120.146262 319 7962ft 144kts
03-Dec-19 11:06 34.876446 -120.174688 319 7669ft 158kts
03-Dec-19 11:07 34.910873 -120.212332 320 7051ft 160kts
03-Dec-19 11:08 34.944222 -120.248864 320 6443ft 157kts
03-Dec-19 11:09 34.976948 -120.284717 320 5840ft 158kts
03-Dec-19 11:10 35.009684 -120.320626 320 5239ft 157kts
03-Dec-19 11:11 35.041686 -120.355796 320 4984ft 137kts
03-Dec-19 11:12 35.070261 -120.387191 320 5004ft 137kts
03-Dec-19 11:13 35.099622 -120.419500 320 4832ft 144kts
03-Dec-19 11:14 35.127466 -120.454649 308 4540ft 146kts
03-Dec-19 11:15 35.150373 -120.491816 309 3863ft 133kts
03-Dec-19 11:16 35.172677 -120.528227 308 2846ft 131kts
03-Dec-19 11:17 35.192392 -120.562225 306 1854ft 107kts
03-Dec-19 11:18 35.205788 -120.585712 304 1312ft 71kts
03-Dec-19 11:19 35.216617 -120.605460 307 851ft 70kts
03-Dec-19 11:20 35.227911 -120.624657 302 415ft 65kts
03-Dec-19 11:21 35.236684 -120.639853 305 214ft 30kts
03-Dec-19 11:22 35.237625 -120.642989 229 214ft 0kts

Navigation Log

Ident Type
Flight plan parsing failed, navigation log unavailable